Drakesville, Iowa
Current Conditions -  °F | °C
As of 9:53 AM on Tuesday 21 Oct 2014 (Local Time) from KOTM Reporting Station
Clear Clear  
Wind Chill: 52°   Ceiling: Unl
Heat Index: 52°   Visibility: 10mi
Dew Point: 44°   Wind: 7mph
Humidity: 74%   Direction: 100°E
Pressure: 30.17"   Gusts: NA
Location:  40.8°N, 92.48°W
Report Text: KOTM 211453Z AUTO 10006KT 10SM CLR 11/07 A3017 RMK AO2 SLP219 T01110067 51018
Loading
Personal Weather Stations






























Interactive Weather Map
Tropical Storm Tracking
New forecast layout! Learn more

10-Day Weather Forecast

Advertisements
Track Severe Weather on mobile